sensor_id;sensor_type;location;lat;lon;timestamp;P1;durP1;ratioP1;P2;durP2;ratioP2
34836;SDS011;21053;50.848;4.652;2023-09-08T00:00:23;9.20;;;1.73;;
34836;SDS011;21053;50.848;4.652;2023-09-08T00:02:52;2.50;;;1.60;;
34836;SDS011;21053;50.848;4.652;2023-09-08T00:05:21;1.58;;;1.40;;
34836;SDS011;21053;50.848;4.652;2023-09-08T00:07:49;1.60;;;1.50;;
34836;SDS011;21053;50.848;4.652;2023-09-08T00:12:45;1.40;;;1.30;;
34836;SDS011;21053;50.848;4.652;2023-09-08T00:20:08;1.95;;;1.63;;
34836;SDS011;21053;50.848;4.652;2023-09-08T00:25:09;1.50;;;1.40;;
34836;SDS011;21053;50.848;4.652;2023-09-08T00:27:38;3.05;;;1.45;;
34836;SDS011;21053;50.848;4.652;2023-09-08T00:30:04;3.13;;;1.90;;
34836;SDS011;21053;50.848;4.652;2023-09-08T00:32:34;1.55;;;1.30;;
34836;SDS011;21053;50.848;4.652;2023-09-08T00:35:05;2.35;;;1.50;;
34836;SDS011;21053;50.848;4.652;2023-09-08T00:37:34;1.25;;;1.17;;
34836;SDS011;21053;50.848;4.652;2023-09-08T00:40:00;1.42;;;1.33;;
34836;SDS011;21053;50.848;4.652;2023-09-08T00:42:26;6.88;;;2.00;;
34836;SDS011;21053;50.848;4.652;2023-09-08T00:44:57;1.85;;;1.75;;
34836;SDS011;21053;50.848;4.652;2023-09-08T00:47:23;1.52;;;1.42;;
34836;SDS011;21053;50.848;4.652;2023-09-08T00:49:52;1.33;;;1.23;;
34836;SDS011;21053;50.848;4.652;2023-09-08T00:52:20;1.75;;;1.27;;
34836;SDS011;21053;50.848;4.652;2023-09-08T00:55:03;1.33;;;1.23;;
34836;SDS011;21053;50.848;4.652;2023-09-08T00:57:32;1.00;;;1.00;;
34836;SDS011;21053;50.848;4.652;2023-09-08T01:00:01;1.55;;;1.45;;
34836;SDS011;21053;50.848;4.652;2023-09-08T01:02:30;1.73;;;1.45;;
34836;SDS011;21053;50.848;4.652;2023-09-08T01:04:58;2.60;;;1.33;;
34836;SDS011;21053;50.848;4.652;2023-09-08T01:07:27;3.63;;;1.77;;
34836;SDS011;21053;50.848;4.652;2023-09-08T01:10:04;1.73;;;1.63;;
34836;SDS011;21053;50.848;4.652;2023-09-08T01:12:31;1.58;;;1.48;;
34836;SDS011;21053;50.848;4.652;2023-09-08T01:14:58;1.10;;;1.10;;
34836;SDS011;21053;50.848;4.652;2023-09-08T01:17:26;1.90;;;1.80;;
34836;SDS011;21053;50.848;4.652;2023-09-08T01:25:28;1.13;;;1.13;;
34836;SDS011;21053;50.848;4.652;2023-09-08T01:30:28;1.45;;;1.35;;
34836;SDS011;21053;50.848;4.652;2023-09-08T01:33:00;1.10;;;1.10;;
34836;SDS011;21053;50.848;4.652;2023-09-08T01:35:28;8.10;;;1.90;;
34836;SDS011;21053;50.848;4.652;2023-09-08T01:37:57;3.78;;;2.00;;
34836;SDS011;21053;50.848;4.652;2023-09-08T01:40:24;1.23;;;1.13;;
34836;SDS011;21053;50.848;4.652;2023-09-08T01:42:53;1.40;;;1.30;;
34836;SDS011;21053;50.848;4.652;2023-09-08T01:45:33;1.05;;;1.05;;
34836;SDS011;21053;50.848;4.652;2023-09-08T01:50:30;2.22;;;1.88;;
34836;SDS011;21053;50.848;4.652;2023-09-08T01:55:27;1.95;;;1.17;;
34836;SDS011;21053;50.848;4.652;2023-09-08T01:57:53;1.45;;;1.25;;
34836;SDS011;21053;50.848;4.652;2023-09-08T02:00:20;3.22;;;1.80;;
34836;SDS011;21053;50.848;4.652;2023-09-08T02:02:52;1.58;;;1.42;;
34836;SDS011;21053;50.848;4.652;2023-09-08T02:05:18;2.05;;;1.38;;
34836;SDS011;21053;50.848;4.652;2023-09-08T02:10:17;2.15;;;1.85;;
34836;SDS011;21053;50.848;4.652;2023-09-08T02:15:12;14.90;;;1.67;;
34836;SDS011;21053;50.848;4.652;2023-09-08T02:17:39;2.38;;;1.70;;
34836;SDS011;21053;50.848;4.652;2023-09-08T02:22:54;1.52;;;1.42;;
34836;SDS011;21053;50.848;4.652;2023-09-08T02:25:23;9.80;;;1.42;;
34836;SDS011;21053;50.848;4.652;2023-09-08T02:27:50;1.20;;;1.10;;
34836;SDS011;21053;50.848;4.652;2023-09-08T02:30:19;1.38;;;1.27;;
34836;SDS011;21053;50.848;4.652;2023-09-08T02:32:46;1.40;;;1.30;;
34836;SDS011;21053;50.848;4.652;2023-09-08T02:35:12;1.40;;;1.30;;
34836;SDS011;21053;50.848;4.652;2023-09-08T02:37:40;12.00;;;2.25;;
34836;SDS011;21053;50.848;4.652;2023-09-08T02:40:12;2.25;;;1.83;;
34836;SDS011;21053;50.848;4.652;2023-09-08T02:42:44;1.67;;;1.58;;
34836;SDS011;21053;50.848;4.652;2023-09-08T02:50:19;1.70;;;1.60;;
34836;SDS011;21053;50.848;4.652;2023-09-08T02:55:17;1.48;;;1.38;;
34836;SDS011;21053;50.848;4.652;2023-09-08T02:57:46;1.42;;;1.33;;
34836;SDS011;21053;50.848;4.652;2023-09-08T03:05:10;1.38;;;1.27;;
34836;SDS011;21053;50.848;4.652;2023-09-08T03:10:06;1.65;;;1.55;;
34836;SDS011;21053;50.848;4.652;2023-09-08T03:12:32;1.23;;;1.17;;
34836;SDS011;21053;50.848;4.652;2023-09-08T03:15:04;1.30;;;1.20;;
34836;SDS011;21053;50.848;4.652;2023-09-08T03:17:32;2.25;;;2.03;;
34836;SDS011;21053;50.848;4.652;2023-09-08T03:25:04;3.13;;;1.85;;
34836;SDS011;21053;50.848;4.652;2023-09-08T03:27:33;1.50;;;1.40;;
34836;SDS011;21053;50.848;4.652;2023-09-08T03:32:32;9.98;;;2.08;;
34836;SDS011;21053;50.848;4.652;2023-09-08T03:34:59;2.10;;;1.55;;
34836;SDS011;21053;50.848;4.652;2023-09-08T03:37:28;1.27;;;1.23;;
34836;SDS011;21053;50.848;4.652;2023-09-08T03:42:24;0.95;;;0.95;;
34836;SDS011;21053;50.848;4.652;2023-09-08T03:44:53;2.30;;;1.30;;
34836;SDS011;21053;50.848;4.652;2023-09-08T03:47:20;2.03;;;1.92;;
34836;SDS011;21053;50.848;4.652;2023-09-08T03:49:47;1.73;;;1.52;;
34836;SDS011;21053;50.848;4.652;2023-09-08T03:52:13;1.35;;;1.30;;
34836;SDS011;21053;50.848;4.652;2023-09-08T03:54:44;1.42;;;1.33;;
34836;SDS011;21053;50.848;4.652;2023-09-08T03:57:13;1.60;;;1.50;;
34836;SDS011;21053;50.848;4.652;2023-09-08T03:59:42;2.08;;;1.70;;
34836;SDS011;21053;50.848;4.652;2023-09-08T04:02:08;2.35;;;1.98;;
34836;SDS011;21053;50.848;4.652;2023-09-08T04:04:34;1.60;;;1.50;;
34836;SDS011;21053;50.848;4.652;2023-09-08T04:07:00;1.20;;;1.20;;
34836;SDS011;21053;50.848;4.652;2023-09-08T04:09:29;1.88;;;1.75;;
34836;SDS011;21053;50.848;4.652;2023-09-08T04:11:56;1.38;;;1.30;;
34836;SDS011;21053;50.848;4.652;2023-09-08T04:14:22;1.65;;;1.52;;
34836;SDS011;21053;50.848;4.652;2023-09-08T04:19:24;1.63;;;1.52;;
34836;SDS011;21053;50.848;4.652;2023-09-08T04:24:22;1.70;;;1.60;;
34836;SDS011;21053;50.848;4.652;2023-09-08T04:26:48;2.25;;;2.05;;
34836;SDS011;21053;50.848;4.652;2023-09-08T04:29:14;2.03;;;1.83;;
34836;SDS011;21053;50.848;4.652;2023-09-08T04:31:39;2.58;;;2.00;;
34836;SDS011;21053;50.848;4.652;2023-09-08T04:34:07;1.45;;;1.38;;
34836;SDS011;21053;50.848;4.652;2023-09-08T04:36:33;3.00;;;1.50;;
34836;SDS011;21053;50.848;4.652;2023-09-08T04:39:02;1.95;;;1.85;;
34836;SDS011;21053;50.848;4.652;2023-09-08T04:43:59;9.07;;;1.83;;
34836;SDS011;21053;50.848;4.652;2023-09-08T04:46:28;1.95;;;1.77;;
34836;SDS011;21053;50.848;4.652;2023-09-08T04:48:54;6.70;;;2.00;;
34836;SDS011;21053;50.848;4.652;2023-09-08T04:51:20;1.85;;;1.63;;
34836;SDS011;21053;50.848;4.652;2023-09-08T04:53:49;1.83;;;1.67;;
34836;SDS011;21053;50.848;4.652;2023-09-08T04:56:16;2.58;;;1.83;;
34836;SDS011;21053;50.848;4.652;2023-09-08T04:58:45;1.80;;;1.70;;
34836;SDS011;21053;50.848;4.652;2023-09-08T05:01:17;1.77;;;1.42;;
34836;SDS011;21053;50.848;4.652;2023-09-08T05:03:45;1.65;;;1.55;;
34836;SDS011;21053;50.848;4.652;2023-09-08T05:06:12;1.75;;;1.60;;
34836;SDS011;21053;50.848;4.652;2023-09-08T05:08:41;3.70;;;2.05;;
34836;SDS011;21053;50.848;4.652;2023-09-08T05:13:36;1.73;;;1.63;;
34836;SDS011;21053;50.848;4.652;2023-09-08T05:16:02;2.65;;;2.40;;
34836;SDS011;21053;50.848;4.652;2023-09-08T05:18:38;2.17;;;1.77;;
34836;SDS011;21053;50.848;4.652;2023-09-08T05:21:07;1.63;;;1.52;;
34836;SDS011;21053;50.848;4.652;2023-09-08T05:23:33;1.52;;;1.45;;
34836;SDS011;21053;50.848;4.652;2023-09-08T05:25:59;1.58;;;1.55;;
34836;SDS011;21053;50.848;4.652;2023-09-08T05:28:28;2.50;;;2.17;;
34836;SDS011;21053;50.848;4.652;2023-09-08T05:33:59;1.80;;;1.70;;
34836;SDS011;21053;50.848;4.652;2023-09-08T05:39:01;2.03;;;1.90;;
34836;SDS011;21053;50.848;4.652;2023-09-08T05:41:28;2.10;;;1.85;;
34836;SDS011;21053;50.848;4.652;2023-09-08T05:43:55;3.20;;;2.03;;
34836;SDS011;21053;50.848;4.652;2023-09-08T05:46:21;1.35;;;1.35;;
34836;SDS011;21053;50.848;4.652;2023-09-08T05:51:17;1.60;;;1.58;;
34836;SDS011;21053;50.848;4.652;2023-09-08T05:53:46;5.25;;;2.22;;
34836;SDS011;21053;50.848;4.652;2023-09-08T05:56:14;2.22;;;2.03;;
34836;SDS011;21053;50.848;4.652;2023-09-08T05:58:40;2.00;;;1.90;;
34836;SDS011;21053;50.848;4.652;2023-09-08T06:03:36;2.20;;;1.83;;
34836;SDS011;21053;50.848;4.652;2023-09-08T06:06:10;1.98;;;1.88;;
34836;SDS011;21053;50.848;4.652;2023-09-08T06:08:36;1.95;;;1.85;;
34836;SDS011;21053;50.848;4.652;2023-09-08T06:11:04;2.30;;;2.08;;
34836;SDS011;21053;50.848;4.652;2023-09-08T06:15:59;2.20;;;2.05;;
34836;SDS011;21053;50.848;4.652;2023-09-08T06:18:28;2.80;;;2.45;;
34836;SDS011;21053;50.848;4.652;2023-09-08T06:20:55;2.67;;;2.45;;
34836;SDS011;21053;50.848;4.652;2023-09-08T06:23:21;2.78;;;2.58;;
34836;SDS011;21053;50.848;4.652;2023-09-08T06:25:47;2.28;;;2.17;;
34836;SDS011;21053;50.848;4.652;2023-09-08T06:28:14;2.05;;;1.95;;
34836;SDS011;21053;50.848;4.652;2023-09-08T06:30:39;2.00;;;1.90;;
34836;SDS011;21053;50.848;4.652;2023-09-08T06:33:09;1.48;;;1.40;;
34836;SDS011;21053;50.848;4.652;2023-09-08T06:35:38;1.88;;;1.60;;
34836;SDS011;21053;50.848;4.652;2023-09-08T06:40:38;3.20;;;2.85;;
34836;SDS011;21053;50.848;4.652;2023-09-08T06:43:06;2.15;;;2.03;;
34836;SDS011;21053;50.848;4.652;2023-09-08T06:45:32;3.55;;;2.83;;
34836;SDS011;21053;50.848;4.652;2023-09-08T06:48:00;7.45;;;2.88;;
34836;SDS011;21053;50.848;4.652;2023-09-08T06:50:27;2.13;;;1.92;;
34836;SDS011;21053;50.848;4.652;2023-09-08T06:52:56;7.18;;;2.08;;
34836;SDS011;21053;50.848;4.652;2023-09-08T06:55:24;2.92;;;2.65;;
34836;SDS011;21053;50.848;4.652;2023-09-08T06:57:52;8.13;;;2.83;;
34836;SDS011;21053;50.848;4.652;2023-09-08T07:00:20;2.92;;;2.28;;
34836;SDS011;21053;50.848;4.652;2023-09-08T07:02:47;1.67;;;1.58;;
34836;SDS011;21053;50.848;4.652;2023-09-08T07:05:16;4.35;;;2.35;;
34836;SDS011;21053;50.848;4.652;2023-09-08T07:10:17;3.60;;;3.30;;
34836;SDS011;21053;50.848;4.652;2023-09-08T07:12:42;4.28;;;2.70;;
34836;SDS011;21053;50.848;4.652;2023-09-08T07:15:08;6.80;;;3.38;;
34836;SDS011;21053;50.848;4.652;2023-09-08T07:17:37;3.08;;;2.58;;
34836;SDS011;21053;50.848;4.652;2023-09-08T07:20:03;3.65;;;3.35;;
34836;SDS011;21053;50.848;4.652;2023-09-08T07:22:32;2.92;;;2.72;;
34836;SDS011;21053;50.848;4.652;2023-09-08T07:24:57;3.55;;;3.25;;
34836;SDS011;21053;50.848;4.652;2023-09-08T07:27:24;4.78;;;3.45;;
34836;SDS011;21053;50.848;4.652;2023-09-08T07:29:51;4.15;;;3.47;;
34836;SDS011;21053;50.848;4.652;2023-09-08T07:34:49;6.07;;;3.85;;
34836;SDS011;21053;50.848;4.652;2023-09-08T07:37:20;4.68;;;4.22;;
34836;SDS011;21053;50.848;4.652;2023-09-08T07:39:48;3.70;;;3.40;;
34836;SDS011;21053;50.848;4.652;2023-09-08T07:42:15;4.22;;;3.83;;
34836;SDS011;21053;50.848;4.652;2023-09-08T07:47:12;4.20;;;3.90;;
34836;SDS011;21053;50.848;4.652;2023-09-08T07:49:39;3.15;;;2.95;;
34836;SDS011;21053;50.848;4.652;2023-09-08T07:52:13;4.25;;;3.90;;
34836;SDS011;21053;50.848;4.652;2023-09-08T07:54:40;4.50;;;4.10;;
34836;SDS011;21053;50.848;4.652;2023-09-08T07:57:08;5.32;;;4.82;;
34836;SDS011;21053;50.848;4.652;2023-09-08T07:59:34;5.03;;;3.95;;
34836;SDS011;21053;50.848;4.652;2023-09-08T08:02:00;23.67;;;5.30;;
34836;SDS011;21053;50.848;4.652;2023-09-08T08:04:27;4.38;;;3.65;;
34836;SDS011;21053;50.848;4.652;2023-09-08T08:06:54;5.28;;;4.45;;
34836;SDS011;21053;50.848;4.652;2023-09-08T08:09:19;5.43;;;4.80;;
34836;SDS011;21053;50.848;4.652;2023-09-08T08:11:47;3.97;;;3.58;;
34836;SDS011;21053;50.848;4.652;2023-09-08T08:14:15;3.88;;;3.58;;
34836;SDS011;21053;50.848;4.652;2023-09-08T08:16:41;4.63;;;4.22;;
34836;SDS011;21053;50.848;4.652;2023-09-08T08:19:07;5.97;;;3.80;;
34836;SDS011;21053;50.848;4.652;2023-09-08T08:21:36;7.70;;;3.72;;
34836;SDS011;21053;50.848;4.652;2023-09-08T08:24:02;6.20;;;3.72;;
34836;SDS011;21053;50.848;4.652;2023-09-08T08:26:30;8.10;;;3.17;;
34836;SDS011;21053;50.848;4.652;2023-09-08T08:29:00;2.80;;;2.60;;
34836;SDS011;21053;50.848;4.652;2023-09-08T08:31:26;4.32;;;3.15;;
34836;SDS011;21053;50.848;4.652;2023-09-08T08:33:51;3.92;;;2.80;;
34836;SDS011;21053;50.848;4.652;2023-09-08T08:36:17;3.25;;;2.95;;
34836;SDS011;21053;50.848;4.652;2023-09-08T08:38:44;4.03;;;3.08;;
34836;SDS011;21053;50.848;4.652;2023-09-08T08:41:10;3.33;;;3.03;;
34836;SDS011;21053;50.848;4.652;2023-09-08T08:43:36;6.15;;;3.25;;
34836;SDS011;21053;50.848;4.652;2023-09-08T08:46:05;7.43;;;2.53;;
34836;SDS011;21053;50.848;4.652;2023-09-08T08:48:32;5.40;;;2.97;;
34836;SDS011;21053;50.848;4.652;2023-09-08T08:50:59;3.88;;;2.42;;
34836;SDS011;21053;50.848;4.652;2023-09-08T08:53:26;4.82;;;2.92;;
34836;SDS011;21053;50.848;4.652;2023-09-08T08:55:55;4.32;;;3.42;;
34836;SDS011;21053;50.848;4.652;2023-09-08T08:58:25;3.55;;;3.25;;
34836;SDS011;21053;50.848;4.652;2023-09-08T09:00:53;6.43;;;3.60;;
34836;SDS011;21053;50.848;4.652;2023-09-08T09:03:22;2.20;;;2.00;;
34836;SDS011;21053;50.848;4.652;2023-09-08T09:05:52;1.90;;;1.80;;
34836;SDS011;21053;50.848;4.652;2023-09-08T09:10:48;4.28;;;2.67;;
34836;SDS011;21053;50.848;4.652;2023-09-08T09:13:17;4.03;;;2.20;;
34836;SDS011;21053;50.848;4.652;2023-09-08T09:15:44;8.88;;;2.80;;
34836;SDS011;21053;50.848;4.652;2023-09-08T09:18:11;3.65;;;1.85;;
34836;SDS011;21053;50.848;4.652;2023-09-08T09:20:37;1.98;;;1.70;;
34836;SDS011;21053;50.848;4.652;2023-09-08T09:23:03;1.40;;;1.30;;
34836;SDS011;21053;50.848;4.652;2023-09-08T09:25:30;3.92;;;1.98;;
34836;SDS011;21053;50.848;4.652;2023-09-08T09:27:58;6.47;;;2.42;;
34836;SDS011;21053;50.848;4.652;2023-09-08T09:30:25;2.67;;;2.47;;
34836;SDS011;21053;50.848;4.652;2023-09-08T09:33:02;3.80;;;3.47;;
34836;SDS011;21053;50.848;4.652;2023-09-08T09:35:42;7.07;;;3.83;;
34836;SDS011;21053;50.848;4.652;2023-09-08T09:38:19;3.75;;;3.45;;
34836;SDS011;21053;50.848;4.652;2023-09-08T09:40:46;3.88;;;3.58;;
34836;SDS011;21053;50.848;4.652;2023-09-08T09:43:13;4.50;;;4.10;;
34836;SDS011;21053;50.848;4.652;2023-09-08T09:45:41;13.40;;;4.85;;
34836;SDS011;21053;50.848;4.652;2023-09-08T09:48:09;6.05;;;4.22;;
34836;SDS011;21053;50.848;4.652;2023-09-08T09:50:37;4.63;;;4.25;;
34836;SDS011;21053;50.848;4.652;2023-09-08T09:53:09;4.68;;;3.83;;
34836;SDS011;21053;50.848;4.652;2023-09-08T09:55:40;6.82;;;3.60;;
34836;SDS011;21053;50.848;4.652;2023-09-08T09:58:07;4.88;;;4.47;;
34836;SDS011;21053;50.848;4.652;2023-09-08T10:00:36;6.03;;;4.00;;
34836;SDS011;21053;50.848;4.652;2023-09-08T10:03:06;9.52;;;3.30;;
34836;SDS011;21053;50.848;4.652;2023-09-08T10:05:32;3.08;;;2.88;;
34836;SDS011;21053;50.848;4.652;2023-09-08T10:07:59;5.75;;;3.45;;
34836;SDS011;21053;50.848;4.652;2023-09-08T10:10:26;2.33;;;2.22;;
34836;SDS011;21053;50.848;4.652;2023-09-08T10:12:57;3.08;;;2.63;;
34836;SDS011;21053;50.848;4.652;2023-09-08T10:15:26;2.50;;;2.30;;
34836;SDS011;21053;50.848;4.652;2023-09-08T10:17:54;3.10;;;2.13;;
34836;SDS011;21053;50.848;4.652;2023-09-08T10:20:22;2.67;;;2.47;;
34836;SDS011;21053;50.848;4.652;2023-09-08T10:22:56;2.85;;;2.65;;
34836;SDS011;21053;50.848;4.652;2023-09-08T10:25:44;3.17;;;2.47;;
34836;SDS011;21053;50.848;4.652;2023-09-08T10:28:23;3.15;;;2.92;;
34836;SDS011;21053;50.848;4.652;2023-09-08T10:30:51;3.15;;;2.95;;
34836;SDS011;21053;50.848;4.652;2023-09-08T10:33:18;4.38;;;3.42;;
34836;SDS011;21053;50.848;4.652;2023-09-08T10:35:46;3.65;;;3.13;;
34836;SDS011;21053;50.848;4.652;2023-09-08T10:38:22;20.95;;;3.28;;
34836;SDS011;21053;50.848;4.652;2023-09-08T10:40:54;3.50;;;3.20;;
34836;SDS011;21053;50.848;4.652;2023-09-08T10:43:40;11.55;;;3.50;;
34836;SDS011;21053;50.848;4.652;2023-09-08T10:46:11;3.53;;;3.22;;
34836;SDS011;21053;50.848;4.652;2023-09-08T10:48:46;3.83;;;3.55;;
34836;SDS011;21053;50.848;4.652;2023-09-08T10:51:12;5.53;;;3.20;;
34836;SDS011;21053;50.848;4.652;2023-09-08T10:53:40;3.40;;;3.20;;
34836;SDS011;21053;50.848;4.652;2023-09-08T10:56:06;4.40;;;3.45;;
34836;SDS011;21053;50.848;4.652;2023-09-08T10:58:36;4.10;;;3.70;;
34836;SDS011;21053;50.848;4.652;2023-09-08T11:01:05;3.78;;;3.53;;
34836;SDS011;21053;50.848;4.652;2023-09-08T11:06:03;3.08;;;2.70;;
34836;SDS011;21053;50.848;4.652;2023-09-08T11:08:41;4.93;;;2.92;;
34836;SDS011;21053;50.848;4.652;2023-09-08T11:11:11;2.97;;;2.78;;
34836;SDS011;21053;50.848;4.652;2023-09-08T11:13:39;3.42;;;2.75;;
34836;SDS011;21053;50.848;4.652;2023-09-08T11:16:06;2.30;;;2.10;;
34836;SDS011;21053;50.848;4.652;2023-09-08T11:18:33;2.22;;;2.05;;
34836;SDS011;21053;50.848;4.652;2023-09-08T11:21:02;2.63;;;2.33;;
34836;SDS011;21053;50.848;4.652;2023-09-08T11:23:33;2.95;;;2.75;;
34836;SDS011;21053;50.848;4.652;2023-09-08T11:26:00;2.97;;;2.78;;
34836;SDS011;21053;50.848;4.652;2023-09-08T11:28:27;7.63;;;3.50;;
34836;SDS011;21053;50.848;4.652;2023-09-08T11:30:54;3.35;;;2.97;;
34836;SDS011;21053;50.848;4.652;2023-09-08T11:33:21;3.65;;;2.72;;
34836;SDS011;21053;50.848;4.652;2023-09-08T11:35:51;3.83;;;3.08;;
34836;SDS011;21053;50.848;4.652;2023-09-08T11:38:23;1.75;;;1.65;;
34836;SDS011;21053;50.848;4.652;2023-09-08T11:40:51;3.80;;;3.45;;
34836;SDS011;21053;50.848;4.652;2023-09-08T11:43:19;3.47;;;3.17;;
34836;SDS011;21053;50.848;4.652;2023-09-08T11:45:45;4.40;;;3.95;;
34836;SDS011;21053;50.848;4.652;2023-09-08T11:48:11;2.88;;;2.67;;
34836;SDS011;21053;50.848;4.652;2023-09-08T11:50:40;3.78;;;3.58;;
34836;SDS011;21053;50.848;4.652;2023-09-08T11:53:07;3.22;;;2.55;;
34836;SDS011;21053;50.848;4.652;2023-09-08T11:55:34;2.90;;;2.70;;
34836;SDS011;21053;50.848;4.652;2023-09-08T11:58:03;4.00;;;3.70;;
34836;SDS011;21053;50.848;4.652;2023-09-08T12:00:30;3.90;;;3.53;;
34836;SDS011;21053;50.848;4.652;2023-09-08T12:03:08;2.65;;;2.47;;
34836;SDS011;21053;50.848;4.652;2023-09-08T12:05:36;3.53;;;3.33;;
34836;SDS011;21053;50.848;4.652;2023-09-08T12:08:03;4.88;;;3.55;;
34836;SDS011;21053;50.848;4.652;2023-09-08T12:10:30;5.07;;;4.68;;
34836;SDS011;21053;50.848;4.652;2023-09-08T12:13:03;4.63;;;4.28;;
34836;SDS011;21053;50.848;4.652;2023-09-08T12:15:36;5.60;;;5.20;;
34836;SDS011;21053;50.848;4.652;2023-09-08T12:18:05;7.15;;;6.55;;
34836;SDS011;21053;50.848;4.652;2023-09-08T12:20:33;9.07;;;8.38;;
34836;SDS011;21053;50.848;4.652;2023-09-08T12:23:04;10.98;;;10.07;;
34836;SDS011;21053;50.848;4.652;2023-09-08T12:25:43;12.52;;;11.52;;
34836;SDS011;21053;50.848;4.652;2023-09-08T12:28:21;14.93;;;13.82;;
34836;SDS011;21053;50.848;4.652;2023-09-08T12:30:48;12.60;;;11.48;;
34836;SDS011;21053;50.848;4.652;2023-09-08T12:33:14;14.35;;;13.32;;
34836;SDS011;21053;50.848;4.652;2023-09-08T12:35:44;17.63;;;16.35;;
34836;SDS011;21053;50.848;4.652;2023-09-08T12:38:11;21.42;;;19.92;;
34836;SDS011;21053;50.848;4.652;2023-09-08T12:40:38;23.05;;;21.38;;
34836;SDS011;21053;50.848;4.652;2023-09-08T12:43:05;26.58;;;24.58;;
34836;SDS011;21053;50.848;4.652;2023-09-08T12:45:33;25.80;;;23.85;;
34836;SDS011;21053;50.848;4.652;2023-09-08T12:47:59;24.88;;;22.98;;
34836;SDS011;21053;50.848;4.652;2023-09-08T12:50:28;26.42;;;24.50;;
34836;SDS011;21053;50.848;4.652;2023-09-08T12:52:55;24.02;;;22.27;;
34836;SDS011;21053;50.848;4.652;2023-09-08T12:55:22;25.95;;;23.95;;
34836;SDS011;21053;50.848;4.652;2023-09-08T12:57:49;25.70;;;23.75;;
34836;SDS011;21053;50.848;4.652;2023-09-08T13:00:19;15.50;;;14.38;;
34836;SDS011;21053;50.848;4.652;2023-09-08T13:02:45;13.60;;;12.63;;
34836;SDS011;21053;50.848;4.652;2023-09-08T13:05:11;25.27;;;15.18;;
34836;SDS011;21053;50.848;4.652;2023-09-08T13:07:37;18.55;;;17.25;;
34836;SDS011;21053;50.848;4.652;2023-09-08T13:10:02;20.38;;;18.88;;
34836;SDS011;21053;50.848;4.652;2023-09-08T13:12:29;20.23;;;18.73;;
34836;SDS011;21053;50.848;4.652;2023-09-08T13:14:56;20.38;;;18.17;;
34836;SDS011;21053;50.848;4.652;2023-09-08T13:17:22;17.52;;;16.27;;
34836;SDS011;21053;50.848;4.652;2023-09-08T13:19:48;16.10;;;14.68;;
34836;SDS011;21053;50.848;4.652;2023-09-08T13:22:13;13.23;;;12.00;;
34836;SDS011;21053;50.848;4.652;2023-09-08T13:24:39;15.60;;;11.18;;
34836;SDS011;21053;50.848;4.652;2023-09-08T13:27:05;13.05;;;12.13;;
34836;SDS011;21053;50.848;4.652;2023-09-08T13:29:31;52.05;;;11.55;;
34836;SDS011;21053;50.848;4.652;2023-09-08T13:31:57;14.65;;;13.57;;
34836;SDS011;21053;50.848;4.652;2023-09-08T13:34:23;18.60;;;17.20;;
34836;SDS011;21053;50.848;4.652;2023-09-08T13:36:50;28.20;;;19.95;;
34836;SDS011;21053;50.848;4.652;2023-09-08T13:39:16;26.90;;;24.88;;
34836;SDS011;21053;50.848;4.652;2023-09-08T13:41:45;22.95;;;21.25;;
34836;SDS011;21053;50.848;4.652;2023-09-08T13:44:18;24.73;;;22.83;;
34836;SDS011;21053;50.848;4.652;2023-09-08T13:46:46;29.90;;;27.70;;
34836;SDS011;21053;50.848;4.652;2023-09-08T13:49:14;30.15;;;27.95;;
34836;SDS011;21053;50.848;4.652;2023-09-08T13:51:40;27.15;;;25.15;;
34836;SDS011;21053;50.848;4.652;2023-09-08T13:54:06;37.33;;;34.15;;
34836;SDS011;21053;50.848;4.652;2023-09-08T13:56:34;33.92;;;31.23;;
34836;SDS011;21053;50.848;4.652;2023-09-08T13:59:03;25.88;;;23.98;;
34836;SDS011;21053;50.848;4.652;2023-09-08T14:01:29;27.38;;;25.38;;
34836;SDS011;21053;50.848;4.652;2023-09-08T14:03:57;36.38;;;33.05;;
34836;SDS011;21053;50.848;4.652;2023-09-08T14:06:27;36.35;;;33.65;;
34836;SDS011;21053;50.848;4.652;2023-09-08T14:08:54;37.17;;;34.35;;
34836;SDS011;21053;50.848;4.652;2023-09-08T14:11:21;33.05;;;30.40;;
34836;SDS011;21053;50.848;4.652;2023-09-08T14:13:49;29.35;;;26.75;;
34836;SDS011;21053;50.848;4.652;2023-09-08T14:21:15;27.63;;;25.23;;
34836;SDS011;21053;50.848;4.652;2023-09-08T14:26:10;37.92;;;35.13;;
34836;SDS011;21053;50.848;4.652;2023-09-08T14:28:36;33.70;;;31.20;;
34836;SDS011;21053;50.848;4.652;2023-09-08T14:31:07;33.42;;;30.52;;
34836;SDS011;21053;50.848;4.652;2023-09-08T14:36:01;28.27;;;26.23;;
34836;SDS011;21053;50.848;4.652;2023-09-08T14:38:28;33.13;;;30.73;;
34836;SDS011;21053;50.848;4.652;2023-09-08T14:40:55;36.55;;;33.65;;
34836;SDS011;21053;50.848;4.652;2023-09-08T14:43:25;34.45;;;31.85;;
34836;SDS011;21053;50.848;4.652;2023-09-08T14:45:52;32.20;;;29.55;;
34836;SDS011;21053;50.848;4.652;2023-09-08T14:48:18;37.85;;;34.67;;
34836;SDS011;21053;50.848;4.652;2023-09-08T14:50:44;34.65;;;31.27;;
34836;SDS011;21053;50.848;4.652;2023-09-08T14:53:13;29.50;;;26.98;;
34836;SDS011;21053;50.848;4.652;2023-09-08T14:58:12;35.00;;;32.30;;
34836;SDS011;21053;50.848;4.652;2023-09-08T15:04:01;38.08;;;35.22;;
34836;SDS011;21053;50.848;4.652;2023-09-08T15:06:27;38.28;;;35.28;;
34836;SDS011;21053;50.848;4.652;2023-09-08T15:08:54;49.78;;;43.30;;
34836;SDS011;21053;50.848;4.652;2023-09-08T15:11:26;50.00;;;46.08;;
34836;SDS011;21053;50.848;4.652;2023-09-08T15:13:53;40.53;;;37.47;;
34836;SDS011;21053;50.848;4.652;2023-09-08T15:16:21;43.33;;;39.83;;
34836;SDS011;21053;50.848;4.652;2023-09-08T15:18:49;41.00;;;37.95;;
34836;SDS011;21053;50.848;4.652;2023-09-08T15:26:20;60.05;;;54.50;;
34836;SDS011;21053;50.848;4.652;2023-09-08T15:28:52;48.75;;;45.08;;
34836;SDS011;21053;50.848;4.652;2023-09-08T15:33:50;53.97;;;49.78;;
34836;SDS011;21053;50.848;4.652;2023-09-08T15:38:48;58.58;;;53.97;;
34836;SDS011;21053;50.848;4.652;2023-09-08T15:41:16;57.95;;;53.55;;
34836;SDS011;21053;50.848;4.652;2023-09-08T15:43:44;60.30;;;55.63;;
34836;SDS011;21053;50.848;4.652;2023-09-08T15:46:18;63.30;;;58.38;;
34836;SDS011;21053;50.848;4.652;2023-09-08T15:48:47;63.78;;;57.28;;
34836;SDS011;21053;50.848;4.652;2023-09-08T15:53:43;57.47;;;52.53;;
34836;SDS011;21053;50.848;4.652;2023-09-08T15:56:10;61.85;;;56.20;;
34836;SDS011;21053;50.848;4.652;2023-09-08T15:58:37;67.60;;;62.17;;
34836;SDS011;21053;50.848;4.652;2023-09-08T16:03:32;57.15;;;52.90;;
34836;SDS011;21053;50.848;4.652;2023-09-08T16:08:31;59.00;;;54.47;;
34836;SDS011;21053;50.848;4.652;2023-09-08T16:10:59;54.15;;;49.70;;
34836;SDS011;21053;50.848;4.652;2023-09-08T16:18:27;63.00;;;50.38;;
34836;SDS011;21053;50.848;4.652;2023-09-08T16:20:54;55.28;;;51.10;;
34836;SDS011;21053;50.848;4.652;2023-09-08T16:23:20;55.75;;;50.38;;
34836;SDS011;21053;50.848;4.652;2023-09-08T16:25:45;50.55;;;46.53;;
34836;SDS011;21053;50.848;4.652;2023-09-08T16:28:12;51.47;;;47.25;;
34836;SDS011;21053;50.848;4.652;2023-09-08T16:30:38;54.47;;;49.58;;
34836;SDS011;21053;50.848;4.652;2023-09-08T16:33:04;51.45;;;46.33;;
34836;SDS011;21053;50.848;4.652;2023-09-08T16:35:30;50.20;;;45.15;;
34836;SDS011;21053;50.848;4.652;2023-09-08T16:37:57;64.22;;;59.13;;
34836;SDS011;21053;50.848;4.652;2023-09-08T16:40:23;46.58;;;42.97;;
34836;SDS011;21053;50.848;4.652;2023-09-08T16:42:50;40.80;;;37.63;;
34836;SDS011;21053;50.848;4.652;2023-09-08T16:45:17;42.17;;;38.55;;
34836;SDS011;21053;50.848;4.652;2023-09-08T16:47:43;42.78;;;39.33;;
34836;SDS011;21053;50.848;4.652;2023-09-08T16:50:09;40.63;;;37.63;;
34836;SDS011;21053;50.848;4.652;2023-09-08T16:52:35;41.78;;;38.53;;
34836;SDS011;21053;50.848;4.652;2023-09-08T16:55:01;48.50;;;38.67;;
34836;SDS011;21053;50.848;4.652;2023-09-08T16:57:27;47.13;;;42.40;;